createdAt,value
2018-08-23T00:02:24.876Z,89.70
2018-08-23T00:04:55.886Z,90.00
2018-08-23T00:07:27.055Z,90.00
2018-08-23T00:09:58.055Z,90.00
2018-08-23T00:12:34.076Z,90.20
2018-08-23T00:15:05.402Z,90.20
2018-08-23T00:17:40.319Z,90.30
2018-08-23T00:20:11.469Z,90.40
2018-08-23T00:22:42.536Z,90.60
2018-08-23T00:25:13.626Z,90.60
2018-08-23T00:27:45.459Z,90.70
2018-08-23T00:30:16.912Z,90.80
2018-08-23T00:32:47.917Z,90.80
2018-08-23T00:35:21.554Z,90.60
2018-08-23T00:37:52.585Z,90.70
2018-08-23T00:40:23.729Z,90.70
2018-08-23T00:43:00.665Z,90.80
2018-08-23T00:45:31.715Z,90.90
2018-08-23T00:48:02.682Z,90.90
2018-08-23T00:51:07.375Z,90.90
2018-08-23T00:53:38.768Z,90.90
2018-08-23T00:56:24.303Z,91.20
2018-08-23T00:59:01.698Z,91.30
2018-08-23T01:01:33.502Z,91.30
2018-08-23T01:04:04.414Z,91.30
2018-08-23T01:06:45.902Z,91.30
2018-08-23T01:09:16.895Z,91.50
2018-08-23T01:11:47.929Z,91.60
2018-08-23T01:14:20.677Z,91.80
2018-08-23T01:17:08.139Z,91.70
2018-08-23T01:19:44.221Z,91.70
2018-08-23T01:22:15.380Z,91.60
2018-08-23T01:24:51.035Z,91.80
2018-08-23T01:27:27.005Z,91.70
2018-08-23T01:29:58.049Z,91.90
2018-08-23T01:32:33.405Z,91.80
2018-08-23T01:35:04.639Z,91.90
2018-08-23T01:37:41.993Z,91.70
2018-08-23T01:40:14.806Z,91.90
2018-08-23T01:42:45.840Z,91.90
2018-08-23T01:47:54.784Z,92.00
2018-08-23T01:50:27.104Z,92.10
2018-08-23T01:52:58.487Z,92.20
2018-08-23T01:55:29.423Z,92.30
2018-08-23T01:58:00.363Z,92.40
2018-08-23T02:00:32.579Z,92.50
2018-08-23T02:03:04.069Z,92.50
2018-08-23T02:05:38.195Z,92.50
2018-08-23T02:08:09.263Z,92.50
2018-08-23T02:10:40.268Z,92.60
2018-08-23T02:13:16.677Z,92.70
2018-08-23T02:15:50.876Z,92.70
2018-08-23T02:18:21.927Z,92.70
2018-08-23T02:20:59.323Z,92.90
2018-08-23T02:23:48.587Z,92.90
2018-08-23T02:26:19.668Z,92.90
2018-08-23T02:28:55.536Z,93.10
2018-08-23T02:31:26.594Z,93.20
2018-08-23T02:33:57.697Z,93.20
2018-08-23T02:36:28.641Z,93.20
2018-08-23T02:39:08.422Z,93.30
2018-08-23T02:44:33.564Z,93.30
2018-08-23T02:47:04.965Z,93.50
2018-08-23T02:49:39.021Z,93.60
2018-08-23T02:52:10.511Z,93.60
2018-08-23T02:54:41.590Z,93.70
2018-08-23T02:57:13.254Z,93.70
2018-08-23T02:59:44.352Z,93.80
2018-08-23T03:02:15.939Z,93.90
2018-08-23T03:04:46.903Z,93.90
2018-08-23T03:07:18.859Z,93.90
2018-08-23T03:09:49.904Z,94.00
2018-08-23T03:12:21.994Z,94.10
2018-08-23T03:14:58.668Z,94.20
2018-08-23T03:17:32.628Z,94.10
2018-08-23T03:20:09.649Z,94.30
2018-08-23T03:22:41.285Z,94.40
2018-08-23T03:25:14.433Z,94.40
2018-08-23T03:27:45.501Z,94.50
2018-08-23T04:34:16.071Z,94.60
2018-08-23T04:36:49.817Z,94.10
2018-08-23T04:39:21.923Z,93.60
2018-08-23T04:42:00.840Z,93.10
2018-08-23T04:44:47.772Z,92.90
2018-08-23T04:47:18.819Z,92.80
2018-08-23T04:50:14.023Z,92.30
2018-08-23T04:55:51.523Z,91.00
2018-08-23T04:58:33.204Z,90.40
2018-08-23T05:01:04.337Z,89.20
2018-08-23T05:03:35.928Z,87.20
2018-08-23T05:06:06.936Z,86.40
2018-08-23T05:08:49.456Z,84.90
2018-08-23T05:14:24.536Z,83.60
2018-08-23T05:16:55.876Z,82.90
2018-08-23T05:19:26.841Z,80.90
2018-08-23T05:21:58.228Z,78.80
2018-08-23T05:24:29.153Z,77.40
2018-08-23T05:40:52.312Z,74.20
2018-08-23T05:43:24.729Z,68.60
2018-08-23T05:45:57.879Z,67.00
2018-08-23T05:48:32.174Z,64.50
2018-08-23T05:54:05.753Z,61.50
2018-08-23T05:56:38.000Z,58.70
2018-08-23T05:59:14.714Z,57.70
2018-08-23T06:01:46.356Z,56.10
2018-08-23T06:04:25.007Z,55.80
2018-08-23T06:06:59.360Z,53.90
2018-08-23T08:24:02.064Z,30.00
2018-08-23T08:26:32.934Z,30.00
2018-08-23T08:29:04.190Z,29.40
2018-08-23T08:31:37.139Z,30.00
2018-08-23T08:34:08.252Z,29.00
2018-08-23T08:36:39.324Z,29.70
2018-08-23T08:39:11.531Z,30.00
2018-08-23T08:41:42.564Z,30.00
2018-08-23T08:44:15.934Z,30.20
2018-08-23T08:46:48.987Z,30.20
2018-08-23T08:49:54.335Z,29.90
2018-08-23T08:52:26.608Z,30.20
2018-08-23T08:54:57.659Z,30.20
2018-08-23T08:57:32.409Z,30.00
2018-08-23T09:00:03.927Z,29.90
2018-08-23T09:02:34.963Z,30.00
2018-08-23T09:05:06.162Z,28.60
2018-08-23T09:07:38.295Z,29.60
2018-08-23T09:10:10.465Z,29.80
2018-08-23T09:12:50.813Z,29.60
2018-08-23T09:15:24.293Z,30.30
2018-08-23T09:17:56.792Z,30.70
2018-08-23T09:23:42.201Z,31.10
2018-08-23T09:26:25.772Z,31.30
2018-08-23T09:28:56.708Z,31.30
2018-08-23T09:31:28.537Z,32.80
2018-08-23T09:34:04.067Z,31.20
2018-08-23T09:36:36.306Z,31.10
2018-08-23T09:39:11.523Z,30.00
2018-08-23T09:42:00.245Z,30.20
2018-08-23T09:44:31.265Z,30.60
2018-08-23T09:47:06.355Z,31.40
2018-08-23T09:49:37.507Z,31.20
2018-08-23T09:52:12.637Z,31.80
2018-08-23T09:54:43.751Z,32.10
2018-08-23T09:57:14.735Z,32.40
2018-08-23T09:59:50.753Z,32.20
2018-08-23T10:02:32.116Z,31.90
2018-08-23T10:05:05.842Z,31.70
2018-08-23T10:07:42.016Z,32.80
2018-08-23T10:10:18.102Z,33.00
2018-08-23T10:12:57.270Z,34.10
2018-08-23T10:15:33.430Z,34.80
2018-08-23T10:18:12.739Z,34.00
2018-08-23T10:20:48.831Z,33.50
2018-08-23T10:23:24.062Z,33.20
2018-08-23T10:25:58.351Z,32.90
2018-08-23T10:28:34.460Z,32.80
2018-08-23T10:31:05.830Z,32.90
2018-08-23T10:33:38.565Z,31.70
2018-08-23T10:36:09.527Z,31.90
2018-08-23T10:38:41.993Z,31.20
2018-08-23T10:41:13.122Z,31.70
2018-08-23T10:43:56.505Z,33.10
2018-08-23T10:46:35.706Z,32.50
2018-08-23T10:49:08.026Z,33.90
2018-08-23T10:51:39.732Z,34.70
2018-08-23T10:54:10.676Z,34.70
2018-08-23T10:56:41.789Z,34.20
2018-08-23T10:59:12.888Z,34.30
2018-08-23T11:01:43.885Z,35.40
2018-08-23T11:07:31.201Z,35.10
2018-08-23T11:10:07.317Z,34.40
2018-08-23T11:12:45.167Z,32.90
2018-08-23T11:15:24.888Z,33.60
2018-08-23T11:18:04.514Z,32.10
2018-08-23T11:20:40.544Z,32.20
2018-08-23T11:23:12.751Z,33.20
2018-08-23T11:25:43.716Z,33.20
2018-08-23T11:28:19.668Z,34.30
2018-08-23T11:30:51.204Z,34.30
2018-08-23T11:33:24.241Z,34.50
2018-08-23T11:35:55.214Z,33.80
2018-08-23T11:38:38.183Z,33.60
2018-08-23T11:41:14.344Z,32.60
2018-08-23T11:43:46.482Z,32.80
2018-08-23T11:46:29.102Z,33.90
2018-08-23T11:49:28.988Z,33.10
2018-08-23T11:52:17.656Z,32.60
2018-08-23T11:54:51.869Z,31.20
2018-08-23T11:57:23.099Z,31.70
2018-08-23T11:59:54.214Z,31.90
2018-08-23T12:16:28.238Z,31.40
2018-08-23T14:19:01.445Z,33.50
2018-08-23T14:21:37.948Z,34.90
2018-08-23T14:24:09.315Z,35.20
2018-08-23T14:26:43.222Z,35.10
2018-08-23T14:29:20.903Z,36.30
2018-08-23T14:31:54.679Z,36.60
2018-08-23T14:34:29.054Z,37.20
2018-08-23T14:37:11.329Z,38.20
2018-08-23T14:39:45.189Z,37.90
2018-08-23T14:42:16.225Z,39.30
2018-08-23T14:44:47.539Z,39.90
2018-08-23T14:47:37.575Z,40.00
2018-08-23T14:50:13.389Z,40.10
2018-08-23T14:52:47.246Z,38.10
2018-08-23T15:04:36.344Z,38.70
2018-08-23T15:07:32.753Z,40.90
2018-08-23T15:12:54.463Z,39.20
2018-08-23T15:15:51.902Z,40.30
2018-08-23T15:18:26.976Z,45.10
2018-08-23T15:21:02.436Z,42.50
2018-08-23T15:23:41.058Z,42.70
2018-08-23T15:26:18.786Z,41.10
2018-08-23T15:28:55.426Z,40.50
2018-08-23T15:34:20.331Z,39.30
2018-08-23T15:37:00.289Z,39.10
2018-08-23T15:39:44.205Z,39.10
2018-08-23T15:45:12.499Z,39.30
2018-08-23T15:47:45.373Z,40.00
2018-08-23T15:50:16.928Z,40.20
2018-08-23T15:55:30.845Z,40.80
2018-08-23T15:58:07.378Z,40.90
2018-08-23T16:00:43.112Z,41.40
2018-08-23T16:03:18.373Z,41.80
2018-08-23T16:05:51.755Z,41.70
2018-08-23T16:08:25.882Z,42.20
2018-08-23T16:10:56.882Z,43.40
2018-08-23T16:13:31.517Z,45.60
2018-08-23T16:16:16.209Z,45.60
2018-08-23T16:19:10.559Z,45.90
2018-08-23T16:21:56.084Z,46.30
2018-08-23T16:24:29.015Z,46.30
2018-08-23T16:27:13.045Z,46.80
2018-08-23T16:29:54.879Z,47.70
2018-08-23T16:32:42.785Z,48.50
2018-08-23T16:35:15.969Z,49.40
2018-08-23T16:37:50.898Z,49.90
2018-08-23T16:40:37.020Z,50.80
2018-08-23T16:43:18.283Z,52.10
2018-08-23T16:45:51.404Z,52.40
2018-08-23T16:48:40.497Z,52.90
2018-08-23T16:51:11.496Z,52.60
2018-08-23T16:53:53.738Z,53.10
2018-08-23T16:56:48.335Z,53.20
2018-08-23T16:59:24.500Z,54.40
2018-08-23T17:02:00.323Z,54.30
2018-08-23T17:04:37.623Z,55.40
2018-08-23T17:07:21.407Z,54.00
2018-08-23T17:10:08.304Z,55.20
2018-08-23T17:12:46.501Z,56.40
2018-08-23T17:15:21.223Z,58.40
2018-08-23T17:17:56.476Z,59.80
2018-08-23T17:20:28.574Z,61.90
2018-08-23T17:22:59.592Z,64.00
2018-08-23T17:25:31.407Z,65.30
2018-08-23T17:28:02.399Z,65.40
2018-08-23T17:30:35.102Z,66.30
2018-08-23T17:35:46.494Z,70.90
2018-08-23T17:38:21.196Z,73.80
2018-08-23T17:40:53.961Z,78.80
2018-08-23T17:43:25.281Z,78.70
2018-08-23T17:45:56.828Z,77.50
2018-08-23T17:48:32.931Z,78.70
2018-08-23T17:51:04.086Z,80.20
2018-08-23T17:53:40.146Z,81.20
2018-08-23T17:59:28.546Z,82.40
2018-08-23T18:27:19.747Z,83.00
2018-08-23T18:29:52.535Z,83.10
2018-08-23T18:32:26.090Z,83.40
2018-08-23T18:35:00.624Z,84.00
2018-08-23T18:37:32.953Z,85.50
2018-08-23T18:40:19.942Z,86.60
2018-08-23T18:43:08.168Z,84.40
2018-08-23T18:45:51.224Z,84.80
2018-08-23T18:48:35.220Z,82.80
2018-08-23T18:51:06.961Z,84.30
2018-08-23T18:53:37.964Z,82.70
2018-08-23T18:56:09.077Z,83.90
2018-08-23T18:58:40.158Z,83.30
2018-08-23T19:01:16.088Z,84.00
2018-08-23T19:29:56.370Z,85.80
2018-08-23T19:32:29.371Z,87.10
2018-08-23T19:38:48.613Z,86.10
2018-08-23T19:44:14.624Z,85.20
2018-08-23T19:47:05.824Z,84.70
2018-08-23T19:49:43.112Z,84.40
2018-08-23T19:52:14.015Z,84.40
2018-08-23T19:54:44.895Z,84.30
2018-08-23T19:57:46.712Z,84.70
2018-08-23T20:24:41.155Z,84.40
2018-08-23T20:27:11.621Z,90.00
2018-08-23T20:29:42.383Z,89.30
2018-08-23T20:32:14.392Z,89.40
2018-08-23T20:34:45.183Z,89.80
2018-08-23T20:37:16.040Z,90.10
2018-08-23T20:39:47.013Z,89.80
2018-08-23T20:42:17.685Z,89.70
2018-08-23T20:44:48.607Z,89.80
2018-08-23T20:47:19.795Z,89.10
2018-08-23T20:49:53.944Z,89.30
2018-08-23T20:52:24.901Z,89.40
2018-08-23T20:54:55.918Z,89.60
2018-08-23T20:57:26.758Z,90.00
2018-08-23T20:59:57.717Z,90.10
2018-08-23T21:02:28.732Z,90.60
2018-08-23T21:04:59.773Z,91.20
2018-08-23T21:07:34.952Z,91.70
2018-08-23T21:10:12.923Z,92.10
2018-08-23T21:12:45.216Z,91.70
2018-08-23T21:15:16.166Z,93.40
2018-08-23T21:17:47.394Z,94.40
2018-08-23T21:20:18.674Z,94.50
2018-08-23T21:22:54.800Z,94.30
2018-08-23T21:25:30.205Z,94.50
2018-08-23T21:28:01.278Z,94.00
2018-08-23T21:30:33.624Z,94.10
2018-08-23T21:33:06.437Z,94.30
2018-08-23T21:35:40.284Z,94.40
2018-08-23T21:38:11.332Z,94.50
2018-08-23T21:40:51.792Z,95.00
2018-08-23T21:43:28.847Z,95.40
2018-08-23T21:46:00.177Z,95.20
2018-08-23T21:48:31.805Z,94.80
2018-08-23T21:51:02.842Z,94.70
2018-08-23T21:53:33.945Z,94.90
2018-08-23T21:56:05.102Z,95.30
2018-08-23T21:58:41.064Z,95.30
2018-08-23T22:01:18.131Z,95.30
2018-08-23T22:03:49.207Z,95.90
2018-08-23T22:06:21.301Z,96.70
2018-08-23T22:08:56.746Z,97.30
2018-08-23T22:11:30.111Z,97.70
2018-08-23T22:14:01.099Z,98.20
2018-08-23T22:16:32.175Z,98.40
2018-08-23T22:19:04.527Z,98.70
2018-08-23T22:21:35.608Z,98.40
2018-08-23T22:24:08.300Z,98.80
2018-08-23T22:26:39.525Z,98.90
2018-08-23T22:29:10.564Z,99.30
2018-08-23T22:31:41.724Z,99.60
2018-08-23T22:34:14.693Z,99.70
2018-08-23T22:36:45.738Z,99.80
2018-08-23T22:39:18.633Z,99.90
2018-08-23T22:41:50.023Z,99.90
2018-08-23T22:44:32.502Z,99.90
2018-08-23T22:47:03.482Z,99.90
2018-08-23T22:49:35.542Z,99.90
2018-08-23T22:52:07.634Z,99.90
2018-08-23T22:54:38.574Z,99.70
2018-08-23T22:57:10.547Z,99.50
